Time;durP1;ratioP1;P1;durP2;ratioP2;P2;SDS_P1;SDS_P2;PMS_P1;PMS_P2;Temp;Humidity;BMP_temperature;BMP_pressure;BME280_temperature;BME280_humidity;BME280_pressure;Samples;Min_cycle;Max_cycle;Signal;HPM_P1;HPM_P2
2023/04/21 00:02:18;;;;;;;795.97;728.87;;;7.00;99.90;;;;;;5054807;28;20850;-82
2023/04/21 00:04:45;;;;;;;777.80;711.47;;;7.00;99.90;;;;;;5054475;28;20914;-82
2023/04/21 00:07:14;;;;;;;791.33;727.30;;;7.10;99.90;;;;;;5054372;28;20563;-82
2023/04/21 00:09:42;;;;;;;759.83;705.60;;;7.10;99.90;;;;;;5053120;28;20466;-82
2023/04/21 00:12:11;;;;;;;667.83;632.77;;;7.00;99.90;;;;;;5054215;28;20460;-82
2023/04/21 00:14:41;;;;;;;649.30;616.17;;;7.00;99.90;;;;;;5054364;28;20554;-82
2023/04/21 00:17:10;;;;;;;732.43;687.13;;;7.00;99.90;;;;;;5054313;28;20597;-82
2023/04/21 00:19:37;;;;;;;687.07;650.77;;;7.10;99.90;;;;;;5054248;28;20455;-82
2023/04/21 00:22:07;;;;;;;727.73;682.73;;;7.00;99.90;;;;;;5054240;28;20452;-81
2023/04/21 00:24:35;;;;;;;415.93;400.07;;;7.00;99.90;;;;;;5054107;28;20483;-81
2023/04/21 00:27:03;;;;;;;569.90;543.53;;;7.10;99.90;;;;;;5053833;28;20486;-81
2023/04/21 00:29:31;;;;;;;676.43;638.37;;;7.10;99.90;;;;;;5053918;28;20454;-81
2023/04/21 00:32:00;;;;;;;743.43;694.47;;;7.10;99.90;;;;;;5053666;28;20452;-81
2023/04/21 00:34:28;;;;;;;755.87;701.20;;;7.10;99.90;;;;;;5052803;28;20480;-81
2023/04/21 00:36:55;;;;;;;786.87;726.23;;;7.10;99.90;;;;;;5054109;28;20479;-81
2023/04/21 00:39:22;;;;;;;786.50;724.07;;;7.10;99.90;;;;;;5053041;28;20455;-81
2023/04/21 00:41:50;;;;;;;795.60;728.03;;;7.10;99.90;;;;;;5054061;28;20451;-81
2023/04/21 00:44:17;;;;;;;795.83;728.93;;;7.10;99.90;;;;;;5054103;28;20470;-81
2023/04/21 00:46:53;;;;;;;820.90;748.03;;;7.20;99.90;;;;;;5053654;28;20990;-81
2023/04/21 00:49:22;;;;;;;824.80;754.10;;;7.10;99.90;;;;;;5053916;28;20542;-81
2023/04/21 00:51:50;;;;;;;802.17;735.50;;;7.10;99.90;;;;;;5053700;28;20451;-81
2023/04/21 00:54:20;;;;;;;783.60;724.10;;;7.20;99.90;;;;;;5053682;28;20506;-81
2023/04/21 00:56:46;;;;;;;776.53;718.13;;;7.10;99.90;;;;;;5053644;28;20479;-81
2023/04/21 00:59:15;;;;;;;800.83;735.07;;;7.10;99.90;;;;;;5053571;28;20452;-80
2023/04/21 01:01:41;;;;;;;818.57;746.77;;;7.10;99.90;;;;;;5053602;28;20483;-80
2023/04/21 01:04:09;;;;;;;809.53;738.00;;;7.10;99.90;;;;;;5053295;28;20534;-81
2023/04/21 01:06:36;;;;;;;832.87;756.77;;;7.10;99.90;;;;;;5052078;28;20474;-80
2023/04/21 01:09:03;;;;;;;850.57;772.67;;;7.20;99.90;;;;;;5053203;28;20455;-80
2023/04/21 01:11:33;;;;;;;863.47;782.57;;;7.10;99.90;;;;;;5053555;28;20451;-80
2023/04/21 01:14:00;;;;;;;879.37;796.57;;;7.10;99.90;;;;;;5053124;28;20471;-80
2023/04/21 01:16:28;;;;;;;862.97;780.80;;;7.10;99.90;;;;;;5051870;28;20543;-80
2023/04/21 01:18:55;;;;;;;881.13;797.87;;;7.20;99.90;;;;;;5053087;28;20452;-80
2023/04/21 01:21:24;;;;;;;869.17;788.27;;;7.20;99.90;;;;;;5052011;28;20508;-80
2023/04/21 01:23:52;;;;;;;856.87;773.37;;;7.20;99.90;;;;;;5053097;28;20482;-80
2023/04/21 01:26:21;;;;;;;866.60;781.40;;;7.20;99.90;;;;;;5051558;28;20962;-80
2023/04/21 01:28:49;;;;;;;877.07;790.90;;;7.20;99.90;;;;;;5052862;28;21036;-80
2023/04/21 01:31:17;;;;;;;886.03;800.27;;;7.20;99.90;;;;;;5052916;28;20452;-80
2023/04/21 01:33:49;;;;;;;868.33;782.03;;;7.10;99.90;;;;;;5052855;28;20479;-80
2023/04/21 01:36:16;;;;;;;871.73;784.33;;;7.10;99.90;;;;;;5052824;28;20455;-79
2023/04/21 01:38:43;;;;;;;870.67;784.30;;;7.20;99.90;;;;;;5052754;28;20546;-80
2023/04/21 01:41:12;;;;;;;877.87;791.00;;;7.20;99.90;;;;;;5052929;28;20455;-80
2023/04/21 01:43:39;;;;;;;869.80;783.20;;;7.10;99.90;;;;;;5052593;28;20478;-80
2023/04/21 01:46:06;;;;;;;878.70;791.87;;;7.20;99.90;;;;;;5052304;28;20463;-80
2023/04/21 01:48:34;;;;;;;889.60;801.53;;;7.20;99.90;;;;;;5052274;28;20570;-80
2023/04/21 01:51:04;;;;;;;876.73;789.60;;;7.10;99.90;;;;;;5052665;28;20494;-80
2023/04/21 01:53:32;;;;;;;908.97;821.10;;;7.20;99.90;;;;;;5052563;28;20497;-80
2023/04/21 01:56:01;;;;;;;902.17;815.37;;;7.10;99.90;;;;;;5052405;28;20884;-80
2023/04/21 01:58:30;;;;;;;914.47;826.07;;;7.10;99.90;;;;;;5052446;28;20509;-80
2023/04/21 02:00:58;;;;;;;927.63;838.13;;;7.20;99.90;;;;;;5052217;28;20966;-80
2023/04/21 02:03:26;;;;;;;918.33;830.10;;;7.10;99.90;;;;;;5052085;28;20971;-80
2023/04/21 02:05:53;;;;;;;887.13;799.80;;;7.20;99.90;;;;;;5050738;28;20471;-80
2023/04/21 02:08:20;;;;;;;878.03;789.30;;;7.10;99.90;;;;;;5051891;28;20479;-80
2023/04/21 02:10:48;;;;;;;892.40;802.73;;;7.10;99.90;;;;;;5052359;28;20546;-80
2023/04/21 02:13:15;;;;;;;885.00;796.60;;;7.20;99.90;;;;;;5051822;28;20577;-80
2023/04/21 02:15:43;;;;;;;881.03;791.10;;;7.20;99.90;;;;;;5051981;28;20452;-80
2023/04/21 02:18:12;;;;;;;899.87;809.50;;;7.20;99.90;;;;;;5051882;28;20818;-80
2023/04/21 02:20:40;;;;;;;900.27;810.10;;;7.20;99.90;;;;;;5052087;28;20450;-80
2023/04/21 02:23:07;;;;;;;863.37;773.67;;;7.20;99.90;;;;;;5050363;28;20487;-80
2023/04/21 02:25:36;;;;;;;882.43;792.47;;;7.20;99.90;;;;;;5051903;28;20977;-80
2023/04/21 02:28:04;;;;;;;892.40;801.60;;;7.10;99.90;;;;;;5051338;28;20480;-80
2023/04/21 02:30:33;;;;;;;893.20;802.30;;;7.10;99.90;;;;;;5052207;28;20463;-80
2023/04/21 02:33:02;;;;;;;876.70;787.23;;;7.10;99.90;;;;;;5052040;28;20862;-80
2023/04/21 02:35:32;;;;;;;874.10;785.13;;;7.00;99.90;;;;;;5050686;28;20455;-80
2023/04/21 02:38:05;;;;;;;874.60;784.90;;;6.90;99.90;;;;;;5051753;28;20460;-80
2023/04/21 02:40:32;;;;;;;892.40;801.60;;;6.80;99.90;;;;;;5050508;28;20550;-80
2023/04/21 02:42:59;;;;;;;884.43;792.53;;;6.60;99.90;;;;;;5051408;28;20459;-80
2023/04/21 02:45:26;;;;;;;885.37;791.77;;;6.50;99.90;;;;;;5051749;28;20455;-80
2023/04/21 02:47:55;;;;;;;892.13;799.87;;;6.40;99.90;;;;;;5051756;28;20521;-80
2023/04/21 02:50:24;;;;;;;880.77;787.87;;;6.20;99.90;;;;;;5051938;28;20538;-80
2023/04/21 02:52:51;;;;;;;891.90;798.57;;;6.10;99.90;;;;;;5051682;28;20462;-80
2023/04/21 02:55:18;;;;;;;901.57;806.40;;;5.90;99.90;;;;;;5051673;28;20942;-80
2023/04/21 02:57:46;;;;;;;914.20;820.83;;;5.80;99.90;;;;;;5051740;28;20886;-80
2023/04/21 03:00:13;;;;;;;905.27;811.87;;;5.60;99.90;;;;;;5051890;28;20843;-80
2023/04/21 03:02:40;;;;;;;906.83;809.67;;;5.50;99.90;;;;;;5054215;28;20457;-80
2023/04/21 03:05:11;;;;;;;913.57;814.90;;;5.60;99.90;;;;;;5055638;28;20493;-80
2023/04/21 03:07:39;;;;;;;918.07;820.80;;;5.60;99.90;;;;;;5055491;28;20475;-80
2023/04/21 03:10:10;;;;;;;916.93;819.40;;;5.50;99.90;;;;;;5055493;28;20869;-80
2023/04/21 03:12:37;;;;;;;916.73;820.73;;;5.40;99.90;;;;;;5054591;28;20470;-80
2023/04/21 03:15:04;;;;;;;930.33;832.47;;;5.30;99.90;;;;;;5055550;28;20918;-80
2023/04/21 03:17:32;;;;;;;940.00;842.40;;;5.20;99.90;;;;;;5055452;28;20467;-80
2023/04/21 03:19:58;;;;;;;928.60;832.10;;;5.10;99.90;;;;;;5055510;28;21160;-80
2023/04/21 03:22:28;;;;;;;939.60;843.70;;;5.00;99.90;;;;;;5055280;28;20459;-80
2023/04/21 03:24:56;;;;;;;935.73;839.57;;;4.80;99.90;;;;;;5055443;28;20894;-80
2023/04/21 03:27:26;;;;;;;939.87;839.17;;;4.70;99.90;;;;;;5054896;28;20451;-80
2023/04/21 03:29:53;;;;;;;949.00;846.47;;;4.80;99.90;;;;;;5055001;28;20542;-80
2023/04/21 03:32:20;;;;;;;938.77;838.93;;;4.90;99.90;;;;;;5055292;28;20546;-80
2023/04/21 03:34:47;;;;;;;934.77;832.27;;;5.10;99.90;;;;;;5055186;28;20471;-80
2023/04/21 03:37:15;;;;;;;956.33;853.63;;;5.10;99.90;;;;;;5053699;28;20463;-80
2023/04/21 03:39:46;;;;;;;955.93;851.03;;;5.20;99.90;;;;;;5055178;28;20448;-80
2023/04/21 03:42:14;;;;;;;953.63;850.60;;;5.10;99.90;;;;;;5053843;28;20540;-80
2023/04/21 03:44:41;;;;;;;942.60;839.93;;;5.10;99.90;;;;;;5054911;28;20485;-80
2023/04/21 03:47:10;;;;;;;962.87;858.37;;;5.10;99.90;;;;;;5054799;28;20451;-80
2023/04/21 03:49:38;;;;;;;942.83;838.90;;;5.10;99.90;;;;;;5054832;28;20482;-80
2023/04/21 03:52:05;;;;;;;942.77;839.37;;;5.10;99.90;;;;;;5055314;28;20459;-80
2023/04/21 03:54:35;;;;;;;946.07;841.27;;;5.10;99.90;;;;;;5054824;28;20510;-80
2023/04/21 03:57:03;;;;;;;966.70;834.57;;;5.10;99.90;;;;;;5054626;28;20451;-80
2023/04/21 03:59:31;;;;;;;938.83;830.77;;;4.90;99.90;;;;;;5054677;28;20447;-80
2023/04/21 04:01:58;;;;;;;948.63;846.53;;;4.90;99.90;;;;;;5054584;28;20467;-80
2023/04/21 04:04:27;;;;;;;957.60;855.00;;;4.70;99.90;;;;;;5054701;28;20550;-80
2023/04/21 04:06:56;;;;;;;951.63;849.77;;;4.60;99.90;;;;;;5054391;28;20508;-80
2023/04/21 04:09:23;;;;;;;943.87;841.97;;;4.70;99.90;;;;;;5053397;28;20475;-80
2023/04/21 04:11:50;;;;;;;961.03;858.37;;;4.50;99.90;;;;;;5054325;28;20494;-80
2023/04/21 04:14:17;;;;;;;951.73;852.67;;;4.40;99.90;;;;;;5053079;28;20562;-80
2023/04/21 04:16:48;;;;;;;960.40;859.43;;;4.30;99.90;;;;;;5052960;28;20451;-80
2023/04/21 04:19:16;;;;;;;975.03;872.60;;;4.40;99.90;;;;;;5053075;28;20946;-80
2023/04/21 04:21:47;;;;;;;971.70;870.70;;;4.40;99.90;;;;;;5053004;28;20466;-80
2023/04/21 04:24:17;;;;;;;967.10;865.33;;;4.30;99.90;;;;;;5054212;28;20474;-80
2023/04/21 04:26:46;;;;;;;966.43;866.57;;;4.20;99.90;;;;;;5053570;28;20807;-80
2023/04/21 04:29:15;;;;;;;960.37;859.10;;;4.20;99.90;;;;;;5054012;28;20482;-80
2023/04/21 04:31:42;;;;;;;958.97;857.20;;;4.20;99.90;;;;;;5054312;28;20550;-80
2023/04/21 04:34:12;;;;;;;967.33;863.40;;;4.20;99.90;;;;;;5054159;28;20475;-80
2023/04/21 04:36:39;;;;;;;967.57;866.27;;;4.10;99.90;;;;;;5054545;28;20487;-80
2023/04/21 04:39:07;;;;;;;972.67;872.00;;;4.10;99.90;;;;;;5055289;28;20648;-80
2023/04/21 04:41:36;;;;;;;977.23;877.07;;;4.30;99.90;;;;;;5055059;28;20490;-80
2023/04/21 04:44:03;;;;;;;970.90;871.13;;;4.30;99.90;;;;;;5054246;28;20578;-80
2023/04/21 04:46:33;;;;;;;998.20;894.27;;;4.40;99.90;;;;;;5053806;28;20456;-80
2023/04/21 04:49:01;;;;;;;970.37;867.27;;;4.40;99.90;;;;;;5053796;28;20479;-80
2023/04/21 04:51:31;;;;;;;963.57;859.53;;;4.30;99.90;;;;;;5054331;28;20451;-80
2023/04/21 04:53:59;;;;;;;953.77;851.77;;;4.40;99.90;;;;;;5053611;28;20850;-80
2023/04/21 04:56:26;;;;;;;965.87;864.20;;;4.50;99.90;;;;;;5053824;28;20542;-80
2023/04/21 04:58:53;;;;;;;978.77;876.77;;;4.40;99.90;;;;;;5053958;28;20448;-80
2023/04/21 05:01:20;;;;;;;974.10;871.93;;;4.50;99.90;;;;;;5053203;28;20460;-80
2023/04/21 05:03:47;;;;;;;944.07;841.10;;;4.60;99.90;;;;;;5052045;28;20844;-80
2023/04/21 05:06:14;;;;;;;965.07;863.70;;;4.60;99.90;;;;;;5053139;28;20470;-80
2023/04/21 05:08:42;;;;;;;957.00;853.60;;;4.70;99.90;;;;;;5053104;28;20475;-80
2023/04/21 05:11:10;;;;;;;940.13;839.03;;;4.70;99.90;;;;;;5053580;28;20474;-80
2023/04/21 05:13:37;;;;;;;933.33;832.77;;;4.70;99.90;;;;;;5052143;28;20905;-80
2023/04/21 05:16:04;;;;;;;921.10;820.27;;;4.90;99.90;;;;;;5053138;28;20455;-80
2023/04/21 05:18:31;;;;;;;927.30;826.87;;;4.90;99.90;;;;;;5053122;28;20479;-80
2023/04/21 05:21:00;;;;;;;931.13;829.93;;;5.10;99.90;;;;;;5053260;28;20490;-80
2023/04/21 05:23:27;;;;;;;933.03;832.57;;;5.10;99.90;;;;;;5052839;28;20483;-80
2023/04/21 05:25:56;;;;;;;935.60;835.80;;;5.20;99.90;;;;;;5051500;28;20451;-80
2023/04/21 05:28:31;;;;;;;951.37;849.73;;;5.30;99.90;;;;;;5052913;28;20455;-80
2023/04/21 05:30:59;;;;;;;932.83;832.33;;;5.30;99.90;;;;;;5053067;28;20546;-80
2023/04/21 05:33:26;;;;;;;920.47;820.50;;;5.30;99.90;;;;;;5053128;28;20471;-81
2023/04/21 05:35:53;;;;;;;954.60;855.03;;;5.30;99.90;;;;;;5052332;28;20455;-81
2023/04/21 05:38:20;;;;;;;957.20;857.13;;;5.30;99.90;;;;;;5052592;28;20478;-80
2023/04/21 05:40:55;;;;;;;959.33;857.80;;;5.30;99.90;;;;;;5052749;28;20447;-80
2023/04/21 05:43:26;;;;;;;961.10;860.40;;;5.50;99.90;;;;;;5052752;28;20566;-81
2023/04/21 05:45:53;;;;;;;969.50;867.83;;;5.60;99.90;;;;;;5052753;28;20462;-81
2023/04/21 05:48:23;;;;;;;948.90;847.50;;;5.80;99.90;;;;;;5052491;28;20447;-81
2023/04/21 05:50:52;;;;;;;936.90;838.13;;;5.90;99.90;;;;;;5053459;28;20478;-81
2023/04/21 05:53:19;;;;;;;933.10;835.27;;;6.10;99.90;;;;;;5052703;28;20479;-81
2023/04/21 05:55:46;;;;;;;943.80;844.50;;;6.10;99.90;;;;;;5052670;28;20537;-81
2023/04/21 05:58:14;;;;;;;944.67;846.40;;;6.10;99.90;;;;;;5052245;28;20514;-80
2023/04/21 06:00:41;;;;;;;943.43;845.10;;;6.20;99.90;;;;;;5051059;28;20459;-80
2023/04/21 06:03:09;;;;;;;946.70;848.20;;;6.20;99.90;;;;;;5052479;28;20484;-80
2023/04/21 06:05:36;;;;;;;956.93;860.43;;;6.20;99.90;;;;;;5051938;28;20508;-81
2023/04/21 06:08:03;;;;;;;960.07;862.00;;;6.20;99.90;;;;;;5052069;28;20487;-81
2023/04/21 06:10:31;;;;;;;952.13;853.97;;;6.10;99.90;;;;;;5052437;28;20479;-81
2023/04/21 06:13:02;;;;;;;960.67;863.30;;;6.20;99.90;;;;;;5052102;28;20451;-81
2023/04/21 06:15:30;;;;;;;948.97;852.17;;;6.30;99.90;;;;;;5051921;28;20558;-81
2023/04/21 06:17:57;;;;;;;951.80;854.67;;;6.30;99.90;;;;;;5052216;28;20839;-81
2023/04/21 06:20:25;;;;;;;964.10;866.73;;;6.40;99.90;;;;;;5050867;28;20475;-81
2023/04/21 06:22:53;;;;;;;946.93;849.60;;;6.50;99.90;;;;;;5050632;28;20459;-81
2023/04/21 06:25:21;;;;;;;962.07;862.23;;;6.60;99.90;;;;;;5050771;28;20827;-81
2023/04/21 06:27:48;;;;;;;981.40;881.83;;;6.70;99.90;;;;;;5051685;28;20455;-81
2023/04/21 06:30:17;;;;;;;976.47;877.27;;;6.80;99.90;;;;;;5050822;28;20546;-81
2023/04/21 06:32:47;;;;;;;967.37;867.97;;;6.80;99.90;;;;;;5051516;28;20455;-81
2023/04/21 06:35:14;;;;;;;975.33;875.53;;;7.00;99.90;;;;;;5051638;28;20878;-81
2023/04/21 06:37:42;;;;;;;979.90;881.07;;;7.10;99.90;;;;;;5049366;28;20459;-81
2023/04/21 06:40:14;;;;;;;981.93;882.93;;;7.20;99.90;;;;;;5050844;28;20471;-81
2023/04/21 06:42:41;;;;;;;964.97;867.30;;;7.20;99.90;;;;;;5051670;28;20463;-81
2023/04/21 06:45:09;;;;;;;970.60;872.50;;;7.30;99.90;;;;;;5050802;28;20482;-81
2023/04/21 06:47:36;;;;;;;973.23;877.10;;;7.30;99.90;;;;;;5041207;28;20449;-81
2023/04/21 06:50:06;;;;;;;969.77;874.00;;;7.30;99.90;;;;;;5031143;28;20458;-81
2023/04/21 06:52:34;;;;;;;976.40;880.80;;;7.40;99.90;;;;;;5031320;28;20959;-81
2023/04/21 06:55:01;;;;;;;966.27;871.23;;;7.60;99.90;;;;;;5030958;28;20476;-81
2023/04/21 06:57:30;;;;;;;965.90;870.33;;;7.60;99.90;;;;;;5031208;28;20456;-88
2023/04/21 06:59:57;;;;;;;968.47;874.90;;;7.60;99.90;;;;;;5031487;28;20571;-83
2023/04/21 07:02:24;;;;;;;966.60;873.13;;;7.80;99.90;;;;;;5030778;28;20984;-86
2023/04/21 07:04:51;;;;;;;954.03;859.80;;;7.90;99.90;;;;;;5030884;28;20494;-87
2023/04/21 07:07:24;;;;;;;946.37;851.97;;;8.00;99.90;;;;;;5030519;28;20943;-86
2023/04/21 07:09:52;;;;;;;937.93;845.03;;;8.10;99.90;;;;;;5030738;28;20897;-86
2023/04/21 07:12:19;;;;;;;930.27;837.47;;;8.20;99.90;;;;;;5031155;28;20459;-83
2023/04/21 07:14:51;;;;;;;940.30;848.20;;;8.20;99.90;;;;;;5031462;28;20651;-85
2023/04/21 07:17:20;;;;;;;914.03;822.53;;;8.20;99.90;;;;;;5031398;28;20501;-86
2023/04/21 07:19:47;;;;;;;922.57;830.63;;;8.40;99.90;;;;;;5031994;28;20911;-86
2023/04/21 07:22:13;;;;;;;920.73;830.43;;;8.50;99.90;;;;;;5031513;28;20487;-86
2023/04/21 07:24:42;;;;;;;912.20;821.43;;;8.70;99.90;;;;;;5031518;28;20476;-84
2023/04/21 07:27:09;;;;;;;888.23;800.30;;;8.80;99.90;;;;;;5031092;28;20506;-84
2023/04/21 07:29:36;;;;;;;885.67;798.27;;;9.00;99.90;;;;;;5031407;28;20456;-85
2023/04/21 07:32:03;;;;;;;886.23;798.43;;;9.20;99.90;;;;;;5031365;28;21000;-84
2023/04/21 07:34:30;;;;;;;848.30;763.80;;;9.30;99.90;;;;;;5031067;28;20565;-85
2023/04/21 07:36:57;;;;;;;846.90;766.10;;;9.40;99.90;;;;;;5030582;28;20881;-84
2023/04/21 07:39:24;;;;;;;800.43;723.83;;;9.60;99.90;;;;;;5030913;28;20483;-86
2023/04/21 07:41:52;;;;;;;802.43;727.83;;;9.50;99.90;;;;;;5029781;28;20448;-86
2023/04/21 07:44:20;;;;;;;781.93;711.60;;;9.70;99.90;;;;;;5030753;28;21050;-86
2023/04/21 07:46:47;;;;;;;778.80;714.90;;;9.80;99.90;;;;;;5030183;28;20452;-86
2023/04/21 07:49:14;;;;;;;774.37;709.60;;;9.90;99.90;;;;;;5034430;28;20888;-85
2023/04/21 07:51:41;;;;;;;753.90;693.30;;;10.00;99.90;;;;;;5034496;28;20452;-86
2023/04/21 07:54:07;;;;;;;722.20;664.23;;;10.30;99.90;;;;;;5034905;28;20554;-87
2023/04/21 07:56:34;;;;;;;669.93;624.80;;;10.60;99.90;;;;;;5034341;28;20464;-86
2023/04/21 07:59:03;;;;;;;569.33;538.83;;;10.70;99.90;;;;;;5034862;28;20476;-87
2023/04/21 08:01:30;;;;;;;82.37;76.37;;;10.90;99.90;;;;;;5036017;28;20452;-94
2023/04/21 08:03:57;;;;;;;53.97;48.77;;;11.00;99.90;;;;;;5035911;28;20563;-89
2023/04/21 08:06:24;;;;;;;39.03;26.07;;;11.10;99.90;;;;;;5033542;28;20467;-88
2023/04/21 08:08:53;;;;;;;34.53;26.33;;;11.30;99.90;;;;;;5034380;28;20455;-88
2023/04/21 08:11:22;;;;;;;37.20;26.20;;;11.70;99.90;;;;;;5034402;28;20452;-88
2023/04/21 08:13:50;;;;;;;37.33;22.90;;;11.50;99.90;;;;;;5034204;28;20563;-88
2023/04/21 08:16:19;;;;;;;38.13;25.23;;;11.60;99.90;;;;;;5032942;28;20459;-88
2023/04/21 08:18:46;;;;;;;35.83;24.80;;;11.70;99.90;;;;;;5034357;28;20475;-88
2023/04/21 08:21:12;;;;;;;33.53;22.60;;;11.70;99.90;;;;;;5034416;28;20965;-87
2023/04/21 08:23:39;;;;;;;33.23;25.63;;;11.60;99.90;;;;;;5033556;28;20459;-83
2023/04/21 08:26:07;;;;;;;35.83;26.77;;;11.80;99.90;;;;;;5034140;28;20459;-82
2023/04/21 08:28:33;;;;;;;29.30;21.27;;;12.10;99.90;;;;;;5033757;28;20551;-83
2023/04/21 08:31:01;;;;;;;35.60;23.43;;;12.10;99.90;;;;;;5033961;28;20449;-82
2023/04/21 08:33:29;;;;;;;32.97;20.43;;;12.10;99.90;;;;;;5033600;28;20487;-83
2023/04/21 08:35:56;;;;;;;29.60;19.17;;;12.20;99.90;;;;;;5034103;28;20452;-83
2023/04/21 08:38:23;;;;;;;33.33;19.07;;;12.40;99.90;;;;;;5033298;28;20452;-82
2023/04/21 08:40:50;;;;;;;30.70;21.03;;;12.60;99.90;;;;;;5033905;28;20562;-82
2023/04/21 08:43:19;;;;;;;31.13;18.53;;;12.90;99.90;;;;;;5033667;28;20468;-82
2023/04/21 08:45:49;;;;;;;31.10;19.20;;;13.10;99.90;;;;;;5033357;28;20816;-83
2023/04/21 08:48:20;;;;;;;24.33;16.43;;;13.00;99.90;;;;;;5033984;28;20514;-85
2023/04/21 08:50:50;;;;;;;23.87;15.70;;;13.60;99.90;;;;;;5033838;28;21014;-83
2023/04/21 08:53:17;;;;;;;27.20;15.53;;;14.00;99.90;;;;;;5016269;28;20948;-83
2023/04/21 08:55:45;;;;;;;25.33;16.53;;;14.20;99.90;;;;;;5033796;28;20533;-83
2023/04/21 08:58:12;;;;;;;27.40;14.97;;;13.90;99.90;;;;;;5031965;28;20553;-82
2023/04/21 09:00:40;;;;;;;25.50;16.13;;;13.90;99.90;;;;;;5032703;28;20492;-83
2023/04/21 09:03:07;;;;;;;27.40;15.57;;;14.30;99.90;;;;;;5031218;28;20484;-83
2023/04/21 09:05:36;;;;;;;22.57;15.87;;;14.50;99.90;;;;;;5032474;28;20474;-81
2023/04/21 09:08:12;;;;;;;23.20;16.50;;;14.80;99.90;;;;;;5032604;28;20459;-81
2023/04/21 09:10:46;;;;;;;27.27;15.63;;;15.20;99.90;;;;;;5032113;28;20827;-82
2023/04/21 09:13:13;;;;;;;25.07;15.20;;;15.70;99.90;;;;;;5032968;28;20476;-82
2023/04/21 09:15:40;;;;;;;25.23;15.33;;;15.70;98.90;;;;;;5031519;28;21022;-81
2023/04/21 09:18:12;;;;;;;31.07;18.90;;;14.60;96.80;;;;;;5032881;28;20464;-82
2023/04/21 09:20:40;;;;;;;22.63;14.50;;;15.00;99.70;;;;;;5032939;28;20515;-82
2023/04/21 09:23:10;;;;;;;24.37;15.77;;;14.80;99.30;;;;;;5032731;28;20480;-82
2023/04/21 09:25:40;;;;;;;22.43;13.80;;;15.50;99.30;;;;;;5031718;28;20462;-82
2023/04/21 09:28:08;;;;;;;27.70;15.67;;;16.30;96.10;;;;;;5032732;28;20462;-81
2023/04/21 09:30:36;;;;;;;25.17;16.63;;;16.70;93.70;;;;;;5032950;28;20523;-82
2023/04/21 09:33:04;;;;;;;23.60;14.27;;;17.20;93.00;;;;;;5032011;28;20503;-82
2023/04/21 09:35:34;;;;;;;23.97;14.83;;;17.20;90.80;;;;;;5031493;28;20515;-82
2023/04/21 09:38:01;;;;;;;21.07;14.90;;;17.60;90.70;;;;;;5031848;28;20456;-82
2023/04/21 09:40:30;;;;;;;21.40;13.80;;;17.70;90.70;;;;;;5032737;28;20572;-82
2023/04/21 09:42:58;;;;;;;28.93;16.13;;;17.90;85.20;;;;;;5032324;28;20459;-82
2023/04/21 09:45:27;;;;;;;20.07;13.50;;;18.20;83.70;;;;;;5032476;28;20459;-82
2023/04/21 09:48:01;;;;;;;22.10;14.50;;;18.20;84.40;;;;;;5015076;28;20967;-94
2023/04/21 09:50:29;;;;;;;23.33;15.33;;;18.50;83.80;;;;;;5033849;28;20506;-81
2023/04/21 09:52:57;;;;;;;26.43;14.97;;;18.90;77.20;;;;;;5039247;28;20982;-81
2023/04/21 09:55:28;;;;;;;24.57;16.10;;;19.20;75.90;;;;;;5052053;28;20458;-80
2023/04/21 09:57:59;;;;;;;20.67;14.27;;;18.50;76.80;;;;;;5050527;28;20987;-81
2023/04/21 10:00:27;;;;;;;23.10;15.23;;;19.60;74.70;;;;;;5052180;28;20477;-82
2023/04/21 10:02:57;;;;;;;21.53;14.53;;;19.80;73.30;;;;;;5051331;28;20981;-81
2023/04/21 10:05:26;;;;;;;22.60;14.07;;;19.40;69.60;;;;;;5051435;28;20981;-81
2023/04/21 10:07:52;;;;;;;23.43;16.00;;;19.80;73.20;;;;;;5051032;28;20960;-81
2023/04/21 10:10:24;;;;;;;23.67;15.70;;;19.00;69.20;;;;;;5050094;28;20539;-81
2023/04/21 10:12:52;;;;;;;25.63;17.40;;;18.50;70.20;;;;;;5051193;28;20459;-80
2023/04/21 10:15:34;;;;;;;26.37;17.30;;;17.90;71.50;;;;;;5051193;28;20455;-81
2023/04/21 10:18:18;;;;;;;26.80;16.20;;;16.40;73.20;;;;;;5051698;28;20487;-80
2023/04/21 10:20:52;;;;;;;24.80;14.83;;;16.90;79.90;;;;;;5051730;28;20487;-80
2023/04/21 10:23:27;;;;;;;23.90;14.67;;;18.10;76.40;;;;;;5051252;28;20882;-80
2023/04/21 10:25:54;;;;;;;22.37;15.97;;;17.80;68.10;;;;;;5051674;28;20975;-79
2023/04/21 10:28:38;;;;;;;22.40;14.73;;;18.40;71.90;;;;;;5051436;28;20549;-80
2023/04/21 10:31:22;;;;;;;21.23;13.20;;;19.10;70.60;;;;;;5053647;28;21022;-94
2023/04/21 10:34:20;;;;;;;22.93;13.87;;;19.60;69.70;;;;;;5052783;28;20506;-91
2023/04/21 10:37:10;;;;;;;22.07;14.90;;;19.50;65.10;;;;;;5052529;28;20962;-90
2023/04/21 10:39:42;;;;;;;21.63;13.90;;;19.00;67.90;;;;;;5044818;28;20462;-80
2023/04/21 10:42:23;;;;;;;25.30;15.17;;;18.20;68.40;;;;;;5051410;28;20453;-79
2023/04/21 10:45:01;;;;;;;22.43;13.73;;;19.10;67.90;;;;;;5051459;28;20463;-80
2023/04/21 10:47:36;;;;;;;21.17;12.67;;;18.80;66.80;;;;;;5051155;28;20451;-79
2023/04/21 10:50:15;;;;;;;24.53;14.43;;;17.90;60.80;;;;;;5051631;28;20531;-79
2023/04/21 10:52:46;;;;;;;18.97;11.60;;;17.90;68.20;;;;;;5052036;28;20446;-89
2023/04/21 10:55:15;;;;;;;19.47;13.23;;;17.90;67.40;;;;;;5050398;28;20456;-89
2023/04/21 10:57:45;;;;;;;20.97;13.00;;;18.60;68.80;;;;;;5052547;28;20462;-89
2023/04/21 11:00:16;;;;;;;18.83;12.00;;;19.30;63.30;;;;;;5052264;28;20480;-89
2023/04/21 11:02:52;;;;;;;24.00;12.57;;;20.30;61.20;;;;;;5052346;28;20871;-90
2023/04/21 11:05:20;;;;;;;21.17;11.67;;;20.30;55.80;;;;;;5054580;28;20889;-90
2023/04/21 11:07:46;;;;;;;20.90;11.57;;;20.30;51.70;;;;;;5051508;28;20451;-89
2023/04/21 11:10:13;;;;;;;19.07;12.87;;;20.40;53.40;;;;;;5051137;28;20505;-90
2023/04/21 11:12:41;;;;;;;15.90;10.97;;;19.90;50.20;;;;;;5033562;28;20461;-88
2023/04/21 11:15:10;;;;;;;16.17;10.33;;;20.40;53.60;;;;;;5050952;28;20461;-88
2023/04/21 11:17:38;;;;;;;16.70;10.80;;;20.90;45.20;;;;;;5051467;28;20932;-88
2023/04/21 11:20:08;;;;;;;17.20;10.67;;;21.20;44.40;;;;;;5051441;28;20547;-89
2023/04/21 11:22:38;;;;;;;15.90;10.50;;;20.90;45.20;;;;;;5053516;28;20483;-88
2023/04/21 11:25:06;;;;;;;16.20;10.77;;;19.70;47.30;;;;;;5055695;28;20908;-88
2023/04/21 11:27:33;;;;;;;18.80;10.90;;;20.30;48.70;;;;;;5054379;28;20486;-89
2023/04/21 11:30:04;;;;;;;15.90;9.77;;;20.10;48.60;;;;;;5055510;28;20456;-88
2023/04/21 11:32:31;;;;;;;17.10;10.43;;;20.80;42.60;;;;;;5055609;28;20515;-89
2023/04/21 11:34:58;;;;;;;12.97;8.00;;;20.70;42.50;;;;;;5055128;28;21070;-89
2023/04/21 11:37:27;;;;;;;15.10;9.20;;;21.80;38.60;;;;;;5055409;28;20534;-89
2023/04/21 11:39:58;;;;;;;16.30;10.77;;;22.30;36.80;;;;;;5054358;28;20459;-89
2023/04/21 11:42:25;;;;;;;14.13;10.20;;;21.90;35.70;;;;;;5054037;28;20284;-88
2023/04/21 11:44:55;;;;;;;15.07;9.90;;;21.30;32.10;;;;;;5054986;28;20482;-89
2023/04/21 11:47:24;;;;;;;16.00;11.30;;;21.30;38.00;;;;;;5055372;28;20554;-90
2023/04/21 11:49:55;;;;;;;16.10;9.90;;;21.30;40.00;;;;;;5055313;28;20456;-89
2023/04/21 11:52:24;;;;;;;15.23;10.97;;;20.80;37.00;;;;;;5055019;28;20449;-90
2023/04/21 11:55:00;;;;;;;16.00;11.27;;;20.60;33.60;;;;;;5054876;28;20469;-89
2023/04/21 11:57:28;;;;;;;17.07;12.00;;;21.40;36.60;;;;;;5054588;28;20531;-89
2023/04/21 11:59:58;;;;;;;15.20;9.87;;;21.50;37.30;;;;;;5055025;28;20820;-89
2023/04/21 12:02:27;;;;;;;19.13;11.57;;;22.70;34.00;;;;;;5055000;28;20486;-89
2023/04/21 12:04:59;;;;;;;16.60;10.73;;;23.20;35.40;;;;;;5055042;28;20475;-90
2023/04/21 12:07:26;;;;;;;17.30;11.23;;;23.80;29.80;;;;;;5054024;28;20451;-90
2023/04/21 12:09:53;;;;;;;20.00;12.87;;;22.30;28.70;;;;;;5054787;28;20459;-90
2023/04/21 12:12:24;;;;;;;17.30;12.43;;;20.80;30.00;;;;;;5054788;28;20568;-90
2023/04/21 12:14:52;;;;;;;18.70;11.67;;;20.70;33.90;;;;;;5054742;28;20467;-91
2023/04/21 12:17:19;;;;;;;18.15;11.93;;;20.30;35.60;;;;;;5054077;28;21177;-89
2023/04/21 12:19:47;;;;;;;17.00;10.03;;;20.80;40.30;;;;;;5054702;28;20206;-90
2023/04/21 12:22:16;;;;;;;15.77;9.33;;;21.00;30.50;;;;;;5054820;28;20457;-90
2023/04/21 12:24:44;;;;;;;18.50;11.40;;;21.50;28.10;;;;;;5054292;28;21046;-89
2023/04/21 12:27:12;;;;;;;16.60;10.73;;;22.50;26.80;;;;;;5053846;28;20534;-85
2023/04/21 12:29:41;;;;;;;16.63;9.40;;;23.30;26.90;;;;;;5054610;28;20199;-90